Flight Track Log - Related Links

Times and Time Zones

All times are in EDT time to prevent confusion due to time zone crossing. See the N42HN flight status page for this flight to view local times or setup timezone preferences in your user account.

Time Position Orientation Groundspeed Altitude Reporting Facility
EDT Latitude Longitude Course Direction KTS MPH feet Rate Location/Type
Sat 05:12:50 PM 44.1967 -123.1822 96° East 232 267 4,200  Level Seattle Center
Sat 05:13:51 PM 44.1939 -123.0919 92° East 236 272 7,600 2,976 Climbing Seattle Center
Sat 05:14:53 PM 44.1844 -122.9919 97° East 254 292 10,300 2,878 Climbing Seattle Center
Sat 05:15:54 PM 44.1711 -122.8514 97° East 303 349 13,500 3,000 Climbing Seattle Center
Sat 05:16:55 PM 44.1614 -122.7272 96° East 322 371 16,400 2,361 Climbing Seattle Center
Sat 05:17:00 PM 44.0655 -122.3266 95° East  Level Estimated
Sat 05:17:56 PM 44.1481 -122.5997 98° East 333 383 18,300  Level Seattle Center
Sat 05:18:00 PM 44.0528 -122.1498 96° East  Level Estimated
Sat 05:18:57 PM 44.1364 -122.4583 97° East 365 420 20,200  Level Seattle Center
Sat 05:19:58 PM 44.1222 -122.3122 98° East 379 436 21,900 1,820 Climbing Seattle Center
Sat 05:20:59 PM 44.1083 -122.1603 97° East 394 453 23,900 1,918 Climbing Seattle Center
Sat 05:22:00 PM 44.0917 -122.0111 99° East 392 451 25,800 1,574 Climbing Seattle Center
Sat 05:23:01 PM 44.0769 -121.8653 98° East 402 463 27,100 1,230 Climbing Seattle Center
Sat 05:24:02 PM 44.0633 -121.7033 97° East 418 481 28,300 1,377 Climbing Seattle Center
Sat 05:25:03 PM 44.0447 -121.5075 97° East 426 490 29,900 1,525 Climbing Seattle Center
Sat 05:26:04 PM 44.0278 -121.3469 98° East 422 486 31,400 1,279 Climbing Seattle Center
Sat 05:27:05 PM 44.0103 -121.1842 98° East 427 491 32,500 1,033 Climbing Seattle Center
Sat 05:28:06 PM 43.9911 -121.0186 99° East 436 502 33,500 885 Climbing Seattle Center
Sat 05:29:07 PM 43.9739 -120.8481 98° East 448 516 34,300 885 Climbing Seattle Center
Sat 05:30:08 PM 43.9556 -120.6758 98° East 453 521 35,300 984 Climbing Seattle Center
Sat 05:31:09 PM 43.9344 -120.5094 100° East 444 511 36,300 984 Climbing Seattle Center
Sat 05:32:10 PM 43.9200 -120.3386 97° East 451 519 37,300 885 Climbing Seattle Center
Sat 05:33:11 PM 43.8994 -120.1731 100° East 443 510 38,100 738 Climbing Seattle Center
Sat 05:34:12 PM 43.8817 -120.0056 98° East 442 509 38,800 443 Climbing Seattle Center
Sat 05:35:13 PM 43.8567 -119.8031 100° East 453 521 39,000 197 Climbing Seattle Center
Sat 05:36:14 PM 43.8381 -119.6289 98° East 460 529 39,200 492 Climbing Seattle Center
Sat 05:37:15 PM 43.8158 -119.4597 100° East 453 521 40,000 836 Climbing Seattle Center
Sat 05:38:16 PM 43.7978 -119.2911 98° East 446 513 40,900 492 Climbing Seattle Center
Sat 05:39:17 PM 43.7756 -119.1275 101° East 438 504 41,000 49 Climbing Seattle Center
Sat 05:40:18 PM 43.7556 -118.9589 99° East 443 510 41,000  Level Seattle Center
Sat 05:41:19 PM 43.7325 -118.7925 101° East 447 514 41,000  Level Seattle Center
Sat 05:42:20 PM 43.7078 -118.5997 100° East 456 525 41,000  Level Seattle Center
Sat 05:43:21 PM 43.6864 -118.4361 100° East 456 525 41,000  Level Seattle Center
Sat 05:44:22 PM 43.6611 -118.2464 100° East 451 519 41,000  Level Seattle Center
Sat 05:45:23 PM 43.6400 -118.0847 100° East 448 516 41,000  Level Seattle Center
Sat 05:46:24 PM 43.6192 -117.9244 100° East 446 513 41,000  Level Seattle Center
Sat 05:47:35 PM 43.5872 -117.7056 101° East 449 517 41,000  Level Salt Lake Center
Sat 05:48:37 PM 43.5664 -117.5464 100° East 443 510 41,000  Level Salt Lake Center
Sat 05:49:39 PM 43.5417 -117.3600 100° East 443 510 41,000  Level Salt Lake Center
Sat 05:50:41 PM 43.5178 -117.2022 102° East 441 507 41,000  Level Salt Lake Center
Sat 05:51:43 PM 43.4919 -117.0153 101° East 448 516 41,000  Level Salt Lake Center
Sat 05:52:44 PM 43.4692 -116.8567 101° East 444 511 41,000  Level Salt Lake Center
Sat 05:53:46 PM 43.4458 -116.6961 101° East 449 517 41,000  Level Salt Lake Center
Sat 05:54:48 PM 43.4178 -116.5106 102° East 446 513 41,000  Level Salt Lake Center
Sat 05:55:50 PM 43.3942 -116.3506 101° East 448 516 41,000  Level Salt Lake Center
Sat 05:56:52 PM 43.3661 -116.1650 102° East 447 514 41,000  Level Salt Lake Center
Sat 05:57:54 PM 43.3433 -116.0056 101° East 446 513 41,000  Level Salt Lake Center
Sat 05:58:56 PM 43.3144 -115.8194 102° East 448 516 41,000  Level Salt Lake Center
Sat 05:59:57 PM 43.2919 -115.6578 101° East 451 519 41,000  Level Salt Lake Center
Sat 06:00:59 PM 43.2608 -115.4717 103° East 450 518 41,000  Level Salt Lake Center
Sat 06:02:01 PM 43.2364 -115.3131 102° East 447 514 41,000  Level Salt Lake Center
Sat 06:03:02 PM 43.2053 -115.1289 103° East 445 512 41,000  Level Salt Lake Center
Sat 06:04:04 PM 43.1817 -114.9703 101° East 445 512 41,000  Level Salt Lake Center
Sat 06:05:06 PM 43.1550 -114.8133 103° East 443 510 41,000  Level Salt Lake Center
Sat 06:06:08 PM 43.1261 -114.6297 102° East 444 511 41,000  Level Salt Lake Center
Sat 06:07:09 PM 43.1000 -114.4764 103° East 436 502 41,000  Level Salt Lake Center
Sat 06:08:11 PM 43.0697 -114.2947 103° East 439 505 41,000  Level Salt Lake Center
Sat 06:09:13 PM 43.0444 -114.1517 104° East 435 501 41,000  Level Salt Lake Center
Sat 06:10:14 PM 43.0094 -113.9597 104° East 434 499 41,000  Level Salt Lake Center
Sat 06:11:16 PM 42.9867 -113.8144 102° East 435 501 41,000  Level Salt Lake Center
Sat 06:12:18 PM 42.9547 -113.6372 104° East 434 499 41,000  Level Salt Lake Center
Sat 06:13:19 PM 42.9289 -113.4861 103° East 430 495 41,000  Level Salt Lake Center
Sat 06:14:21 PM 42.8972 -113.3081 104° East 431 496 41,000  Level Salt Lake Center
Sat 06:15:23 PM 42.8689 -113.1553 104° East 433 498 41,000  Level Salt Lake Center
Sat 06:16:24 PM 42.8417 -113.0031 104° East 433 498 41,000  Level Salt Lake Center
Sat 06:17:26 PM 42.8092 -112.8256 104° East 432 497 41,000  Level Salt Lake Center
Sat 06:18:28 PM 42.7819 -112.6722 104° East 435 501 41,000  Level Salt Lake Center
Sat 06:19:29 PM 42.7475 -112.4936 105° East 437 503 41,000  Level Salt Lake Center
Sat 06:20:31 PM 42.7203 -112.3389 103° East 440 506 41,000  Level Salt Lake Center
Sat 06:21:33 PM 42.6853 -112.1697 106° East 439 505 41,000  Level Salt Lake Center
Sat 06:22:34 PM 42.6547 -112.0078 104° East 441 507 41,000  Level Salt Lake Center
Sat 06:23:36 PM 42.6239 -111.8458 104° East 442 509 41,000  Level Salt Lake Center
Sat 06:24:38 PM 42.5928 -111.6839 105° East 444 511 41,000  Level Salt Lake Center
Sat 06:25:39 PM 42.5608 -111.5242 105° East 441 507 41,000  Level Salt Lake Center
Sat 06:26:41 PM 42.5228 -111.3322 105° East 440 506 41,000  Level Salt Lake Center
Sat 06:27:43 PM 42.4908 -111.1708 105° East 442 509 41,000  Level Salt Lake Center
Sat 06:28:44 PM 42.4575 -111.0128 106° East 438 504 41,000  Level Salt Lake Center
Sat 06:29:46 PM 42.4264 -110.8469 104° East 439 505 41,000  Level Salt Lake Center
Sat 06:30:48 PM 42.3950 -110.6956 106° East 437 503 41,000  Level Salt Lake Center
Sat 06:31:49 PM 42.3594 -110.5189 105° East 437 503 41,000  Level Salt Lake Center
Sat 06:32:51 PM 42.3278 -110.3672 106° East 438 504 41,000  Level Salt Lake Center
Sat 06:33:53 PM 42.2958 -110.2175 106° East 434 499 41,000  Level Salt Lake Center
Sat 06:34:54 PM 42.2569 -110.0425 107° East 435 501 41,000  Level Salt Lake Center
Sat 06:35:56 PM 42.2269 -109.8917 105° East 434 499 41,000  Level Salt Lake Center
Sat 06:36:58 PM 42.1894 -109.7186 106° East 431 496 41,000  Level Salt Lake Center
Sat 06:37:59 PM 42.1583 -109.5683 106° East 433 498 41,000  Level Salt Lake Center
Sat 06:39:01 PM 42.1192 -109.3928 107° East 436 502 41,000  Level Salt Lake Center
Sat 06:40:03 PM 42.0881 -109.2428 106° East 436 502 41,000  Level Salt Lake Center
Sat 06:41:04 PM 42.0539 -109.0914 107° East 438 504 41,000  Level Salt Lake Center
Sat 06:42:06 PM 42.0144 -108.9128 106° East 443 510 41,000  Level Salt Lake Center
Sat 06:43:07 PM 41.9817 -108.7622 106° East 439 505 41,000  Level Salt Lake Center
Sat 06:44:09 PM 41.9417 -108.5853 107° East 440 506 41,000  Level Salt Lake Center
Sat 06:45:11 PM 41.9075 -108.4328 107° East 443 510 41,000  Level Salt Lake Center
Sat 06:46:12 PM 41.8728 -108.2800 107° East 446 513 41,000  Level Salt Lake Center
Sat 06:46:59 PM 41.8428 -108.1508 107° East 442 509 41,000  Level Denver Center
Sat 06:48:01 PM 41.7994 -107.9761 108° East 441 507 41,000  Level Denver Center
Sat 06:49:02 PM 41.7664 -107.8225 106° East 445 512 41,000  Level Denver Center
Sat 06:50:04 PM 41.7303 -107.6711 108° East 445 512 41,000  Level Denver Center
Sat 06:51:06 PM 41.6894 -107.4939 107° East 445 512 41,000  Level Denver Center
Sat 06:52:07 PM 41.6519 -107.3428 108° East 447 514 41,000  Level Denver Center
Sat 06:54:25 PM 41.5608 -106.9628 108° East 452 520 41,000  Level Salt Lake Center
Sat 06:55:13 PM 41.5308 -106.8364 108° East 449 517 41,000  Level Denver Center
Sat 06:56:14 PM 41.4922 -106.6825 108° East 457 526 41,000  Level Denver Center
Sat 06:57:16 PM 41.4506 -106.5092 108° East 452 520 41,000  Level Denver Center
Sat 06:58:18 PM 41.4125 -106.3589 109° East 449 517 41,000  Level Denver Center
Sat 06:59:20 PM 41.3686 -106.1831 108° East 450 518 41,000  Level Denver Center
Sat 07:00:22 PM 41.3300 -106.0308 109° East 453 521 41,000 244 Level Denver Center
Sat 07:01:23 PM 41.2928 -105.8808 108° East 450 518 41,500 780 Climbing Denver Center
Sat 07:02:25 PM 41.2500 -105.7089 108° East 442 509 42,600 726 Climbing Denver Center
Sat 07:03:27 PM 41.2117 -105.5664 110° East 433 498 43,000 194 Climbing Denver Center
Sat 07:04:29 PM 41.1692 -105.3961 108° East 434 499 43,000  Level Denver Center
Sat 07:05:30 PM 41.1294 -105.2464 109° East 444 511 43,000  Level Denver Center
Sat 07:06:32 PM 41.0847 -105.0786 109° East 437 503 43,000  Level Denver Center
Sat 07:07:34 PM 41.0469 -104.9292 108° East 442 509 43,000  Level Denver Center
Sat 07:08:35 PM 41.0033 -104.7669 110° East 446 513 43,000  Level Denver Center
Sat 07:09:37 PM 40.9614 -104.6114 110° East 448 516 43,000  Level Denver Center
Sat 07:10:39 PM 40.9194 -104.4542 109° East 450 518 43,000  Level Denver Center
Sat 07:11:41 PM 40.8769 -104.2964 110° East 455 524 43,000  Level Denver Center
Sat 07:12:42 PM 40.8344 -104.1417 110° East 450 518 43,000  Level Denver Center
Sat 07:13:44 PM 40.7822 -103.9531 110° East 455 524 43,000  Level Denver Center
Sat 07:14:46 PM 40.7403 -103.7989 110° East 448 516 43,000  Level Denver Center
Sat 07:15:48 PM 40.6981 -103.6467 110° East 442 509 43,000  Level Denver Center
Sat 07:16:50 PM 40.6567 -103.4964 110° East 438 504 43,000  Level Denver Center
Sat 07:17:51 PM 40.6142 -103.3467 110° East 435 501 43,000  Level Denver Center
Sat 07:18:53 PM 40.5722 -103.1972 110° East 437 503 43,000  Level Denver Center
Sat 07:19:55 PM 40.5281 -103.0483 111° Southeast 438 504 43,000  Level Denver Center
Sat 07:20:57 PM 40.4786 -102.8664 110° East 441 507 43,000  Level Denver Center
Sat 07:21:58 PM 40.4344 -102.7142 111° Southeast 446 513 43,000  Level Denver Center
Sat 07:23:00 PM 40.3914 -102.5650 111° Southeast 446 513 43,000  Level Denver Center
Sat 07:24:02 PM 40.3486 -102.4186 111° Southeast 449 517 43,000  Level Denver Center
Sat 07:25:03 PM 40.2994 -102.2500 111° Southeast 447 514 43,000  Level Denver Center
Sat 07:26:05 PM 40.2558 -102.1039 111° Southeast 449 517 43,000  Level Denver Center
Sat 07:27:07 PM 40.2042 -101.9322 111° Southeast 455 524 43,000  Level Denver Center
Sat 07:28:09 PM 40.1614 -101.7867 111° Southeast 453 521 43,000  Level Denver Center
Sat 07:29:10 PM 40.1089 -101.6131 112° Southeast 462 532 43,000  Level Denver Center
Sat 07:30:12 PM 40.0675 -101.4672 110° East 455 524 43,000  Level Denver Center
Sat 07:31:14 PM 40.0128 -101.2953 113° Southeast 459 528 43,000  Level Denver Center
Sat 07:32:16 PM 39.9675 -101.1431 111° Southeast 468 539 43,000  Level Denver Center
Sat 07:33:17 PM 39.9133 -100.9694 112° Southeast 467 537 43,000  Level Denver Center
Sat 07:34:19 PM 39.8675 -100.8203 112° Southeast 465 535 43,000  Level Denver Center
Sat 07:35:21 PM 39.8214 -100.6725 112° Southeast 463 533 43,000  Level Denver Center
Sat 07:36:23 PM 39.7683 -100.5000 112° Southeast 461 531 43,000  Level Denver Center
Sat 07:37:36 PM 39.7217 -100.3539 113° Southeast 459 528 43,000  Level Denver Center
Sat 07:38:38 PM 39.6600 -100.1556 112° Southeast 464 534 43,000  Level Denver Center
Sat 07:39:40 PM 39.6047 -99.9842 113° Southeast 463 533 43,000  Level Denver Center
Sat 07:40:42 PM 39.5578 -99.8372 112° Southeast 465 535 43,000  Level Denver Center
Sat 07:41:43 PM 39.5072 -99.6831 113° Southeast 466 536 43,000  Level Denver Center
Sat 07:42:45 PM 39.4542 -99.5147 112° Southeast 466 536 43,000  Level Denver Center
Sat 07:43:47 PM 39.4053 -99.3675 113° Southeast 468 539 43,000  Level Denver Center
Sat 07:44:48 PM 39.3483 -99.1947 113° Southeast 468 539 43,000  Level Denver Center
Sat 07:45:50 PM 39.2992 -99.0467 113° Southeast 469 540 43,000  Level Denver Center
Sat 07:46:52 PM 39.2431 -98.8797 113° Southeast 470 541 43,000  Level Denver Center
Sat 07:48:04 PM 39.1831 -98.6931 112° Southeast 471 542 43,000  Level Kansas City Center
Sat 07:49:05 PM 39.1300 -98.5381 114° Southeast 473 544 43,000  Level Kansas City Center
Sat 07:50:07 PM 39.0786 -98.3808 113° Southeast 476 548 43,000  Level Kansas City Center
Sat 07:51:08 PM 39.0242 -98.2244 114° Southeast 478 550 43,000  Level Kansas City Center
Sat 07:52:10 PM 38.9700 -98.0686 114° Southeast 477 549 43,000  Level Kansas City Center
Sat 07:53:11 PM 38.9164 -97.9117 114° Southeast 477 549 43,000  Level Kansas City Center
Sat 07:54:13 PM 38.8589 -97.7447 114° Southeast 477 549 43,000  Level Kansas City Center
Sat 07:55:14 PM 38.7983 -97.5725 114° Southeast 475 547 43,000  Level Kansas City Center
Sat 07:56:16 PM 38.7467 -97.4183 113° Southeast 465 535 43,000  Level Kansas City Center
Sat 07:57:17 PM 38.6928 -97.2675 115° Southeast 463 533 43,000  Level Kansas City Center
Sat 07:58:19 PM 38.6397 -97.1183 114° Southeast 460 529 43,000  Level Kansas City Center
Sat 07:59:22 PM 38.5883 -96.9703 114° Southeast 455 524 43,000  Level Kansas City Center
Sat 08:00:22 PM 38.5353 -96.8222 115° Southeast 457 526 43,000  Level Kansas City Center
Sat 08:01:23 PM 38.4825 -96.6711 114° Southeast 458 527 43,000  Level Kansas City Center
Sat 08:02:25 PM 38.4294 -96.5272 115° Southeast 455 524 43,000  Level Kansas City Center
Sat 08:03:26 PM 38.3717 -96.3650 114° Southeast 461 531 43,000  Level Kansas City Center
Sat 08:04:28 PM 38.3208 -96.2258 115° Southeast 457 526 43,000  Level Kansas City Center
Sat 08:05:29 PM 38.2628 -96.0625 114° Southeast 456 525 43,000  Level Kansas City Center
Sat 08:06:31 PM 38.2108 -95.9222 115° Southeast 457 526 43,000  Level Kansas City Center
Sat 08:07:32 PM 38.1514 -95.7592 115° Southeast 458 527 43,000  Level Kansas City Center
Sat 08:08:34 PM 38.0994 -95.6200 115° Southeast 458 527 43,000  Level Kansas City Center
Sat 08:09:35 PM 38.0386 -95.4575 115° Southeast 458 527 43,000  Level Kansas City Center
Sat 08:10:37 PM 37.9867 -95.3186 115° Southeast 458 527 43,000  Level Kansas City Center
Sat 08:11:38 PM 37.9267 -95.1608 116° Southeast 454 522 43,000  Level Kansas City Center
Sat 08:12:40 PM 37.8739 -95.0231 116° Southeast 449 517 43,000  Level Kansas City Center
Sat 08:13:41 PM 37.8219 -94.8836 115° Southeast 454 522 43,000  Level Kansas City Center
Sat 08:14:43 PM 37.7597 -94.7239 116° Southeast 455 524 43,000  Level Kansas City Center
Sat 08:15:45 PM 37.7081 -94.5853 115° Southeast 456 525 43,000  Level Kansas City Center
Sat 08:16:46 PM 37.6508 -94.4394 116° Southeast 456 525 43,000  Level Kansas City Center
Sat 08:17:48 PM 37.5939 -94.2928 116° Southeast 461 531 43,000  Level Kansas City Center
Sat 08:18:49 PM 37.5383 -94.1492 116° Southeast 457 526 43,000  Level Kansas City Center
Sat 08:19:51 PM 37.4808 -94.0031 116° Southeast 455 524 43,000  Level Kansas City Center
Sat 08:20:52 PM 37.4239 -93.8586 116° Southeast 459 528 43,000  Level Kansas City Center
Sat 08:21:54 PM 37.3561 -93.6878 116° Southeast 457 526 43,000  Level Kansas City Center
Sat 08:22:55 PM 37.3031 -93.5436 115° Southeast 456 525 43,000  Level Kansas City Center
Sat 08:23:57 PM 37.2442 -93.4006 117° Southeast 458 527 43,000  Level Kansas City Center
Sat 08:24:58 PM 37.1869 -93.2578 117° Southeast 458 527 43,000  Level Kansas City Center
Sat 08:26:00 PM 37.1292 -93.1153 117° Southeast 459 528 43,000  Level Kansas City Center
Sat 08:27:01 PM 37.0719 -92.9722 117° Southeast 460 529 43,000  Level Kansas City Center
Sat 08:28:03 PM 37.0139 -92.8300 117° Southeast 460 529 43,000  Level Kansas City Center
Sat 08:29:04 PM 36.9556 -92.6872 117° Southeast 460 529 43,000  Level Kansas City Center
Sat 08:30:06 PM 36.8844 -92.5169 118° Southeast 461 531 43,000  Level Kansas City Center
Sat 08:31:07 PM 36.8278 -92.3736 116° Southeast 461 531 43,000  Level Kansas City Center
Sat 08:32:09 PM 36.7681 -92.2325 118° Southeast 461 531 43,000  Level Kansas City Center
Sat 08:33:10 PM 36.7089 -92.0911 118° Southeast 461 531 43,000  Level Kansas City Center
Sat 08:34:12 PM 36.6508 -91.9494 117° Southeast 460 529 43,000  Level Kansas City Center
Sat 08:35:02 PM 36.6003 -91.8328 118° Southeast 458 527 43,000  Level Memphis Center
Sat 08:36:02 PM 36.5414 -91.6897 117° Southeast 458 527 43,000  Level Memphis Center
Sat 08:37:02 PM 36.4781 -91.5492 119° Southeast 458 527 43,000  Level Memphis Center
Sat 08:38:02 PM 36.4169 -91.4092 118° Southeast 458 527 43,000  Level Memphis Center
Sat 08:39:02 PM 36.3617 -91.2692 116° Southeast 458 527 43,000  Level Memphis Center
Sat 08:40:02 PM 36.3000 -91.1294 119° Southeast 458 527 43,000  Level Memphis Center
Sat 08:41:02 PM 36.2406 -90.9925 118° Southeast 453 521 43,000  Level Memphis Center
Sat 08:42:02 PM 36.1806 -90.8558 119° Southeast 453 521 43,000  Level Memphis Center
Sat 08:43:02 PM 36.1206 -90.7142 118° Southeast 453 521 43,000  Level Memphis Center
Sat 08:44:02 PM 36.0647 -90.5803 117° Southeast 453 521 43,000  Level Memphis Center
Sat 08:45:02 PM 36.0022 -90.4442 120° Southeast 453 521 43,000  Level Memphis Center
Sat 08:46:02 PM 35.9439 -90.3058 117° Southeast 453 521 43,000  Level Memphis Center
Sat 08:47:02 PM 35.8833 -90.1700 119° Southeast 453 521 43,000  Level Memphis Center
Sat 08:48:02 PM 35.8203 -90.0319 119° Southeast 459 528 43,000  Level Memphis Center
Sat 08:49:02 PM 35.7617 -89.8939 118° Southeast 459 528 43,000  Level Memphis Center
Sat 08:50:02 PM 35.6983 -89.7564 120° Southeast 454 522 43,000  Level Memphis Center
Sat 08:51:02 PM 35.6411 -89.5983 114° Southeast 454 522 43,000  Level Memphis Center
Sat 08:52:02 PM 35.5756 -89.4636 121° Southeast 459 528 43,000  Level Memphis Center
Sat 08:53:02 PM 35.5206 -89.3367 118° Southeast 459 528 43,000  Level Memphis Center
Sat 08:54:02 PM 35.4586 -89.1997 119° Southeast 459 528 43,000  Level Memphis Center
Sat 08:55:02 PM 35.3906 -89.0608 121° Southeast 464 534 43,000  Level Memphis Center
Sat 08:56:02 PM 35.3308 -88.9242 118° Southeast 464 534 43,000  Level Memphis Center
Sat 08:57:02 PM 35.2664 -88.7853 120° Southeast 464 534 43,000  Level Memphis Center
Sat 08:58:02 PM 35.1956 -88.6369 120° Southeast 464 534 43,000  Level Memphis Center
Sat 08:59:02 PM 35.1353 -88.5008 118° Southeast 464 534 43,000  Level Memphis Center
Sat 09:00:02 PM 35.0792 -88.3831 120° Southeast 453 521 43,000  Level Memphis Center
Sat 09:01:02 PM 35.0167 -88.2525 120° Southeast 448 516 43,000  Level Memphis Center
Sat 09:02:02 PM 34.9514 -88.0997 117° Southeast 456 525 43,000 -100 Level Memphis Center
Sat 09:03:02 PM 34.8861 -87.9672 121° Southeast 456 525 42,800 -650 Descending Memphis Center
Sat 09:04:02 PM 34.8208 -87.8275 120° Southeast 457 526 41,700 -850 Descending Memphis Center
Sat 09:05:02 PM 34.7511 -87.6906 122° Southeast 462 532 41,100 -1,116 Descending Memphis Center
Sat 09:07:21 PM 34.6069 -87.3700 119° Southeast 478 550 38,000 -1,266 Descending Atlanta Center
Sat 09:08:21 PM 34.5375 -87.2311 121° Southeast 478 550 36,900 -1,050 Descending Atlanta Center
Sat 09:09:21 PM 34.4722 -87.0950 120° Southeast 478 550 35,900 -1,100 Descending Atlanta Center
Sat 09:10:21 PM 34.4044 -86.9642 122° Southeast 473 544 34,700 -1,000 Descending Atlanta Center
Sat 09:11:21 PM 34.3547 -86.8569 119° Southeast 467 537 33,900 -2,000 Descending Atlanta Center
Sat 09:12:21 PM 34.2828 -86.7136 121° Southeast 455 524 30,700 -3,600 Descending Atlanta Center
Sat 09:13:21 PM 34.2169 -86.5733 120° Southeast 467 537 26,700 -3,250 Descending Atlanta Center
Sat 09:14:21 PM 34.1528 -86.4436 121° Southeast 467 537 24,200 3,150 Descending Atlanta Center
Sat 09:15:21 PM 34.1133 -86.3144 110° East 423 487 33,000 -3,450 Climbing Atlanta Center
Sat 09:16:21 PM 34.1161 -86.1664 89° East 416 479 17,300 -9,200 Descending Atlanta Center
Sat 09:17:21 PM 34.0425 -86.0694 132° Southeast 393 452 14,600 -2,800 Descending Atlanta Center
Sat 09:18:21 PM 33.9983 -85.9706 118° Southeast 364 419 11,700 -1,800 Descending Atlanta Center
Sat 09:19:21 PM 34.0019 -85.8631 88° East 325 374 11,000 -350 Descending Atlanta Center
Sat 09:20:21 PM 33.9933 -85.7500 95° East 315 362 11,000  Level Atlanta Center
Sat 09:21:21 PM 33.9881 -85.6572 94° East 310 357 11,000  Level Atlanta Center
Sat 09:22:21 PM 33.9853 -85.5494 92° East 310 357 11,000 -350 Level Atlanta Center
Sat 09:23:21 PM 33.9783 -85.4467 95° East 315 362 10,300 -1,050 Descending Atlanta Center
Sat 09:24:21 PM 33.9711 -85.3414 95° East 315 362 8,900 -1,150 Descending Atlanta Center
Sat 09:25:21 PM 33.9636 -85.2411 95° East 310 357 8,000 -450 Descending Atlanta Center
Sat 09:26:21 PM 33.9606 -85.1408 92° East 305 351 8,000 -50 Level Atlanta Center
Sat 09:27:21 PM 33.9572 -85.0406 92° East 305 351 7,900 -350 Descending Atlanta Center
Sat 09:28:21 PM 33.9622 -84.9356 87° East 292 336 7,300 -700 Descending Atlanta Center
Sat 09:29:21 PM 33.9628 -84.8453 90° East 274 315 6,500 -650 Descending Atlanta Center
Sat 09:30:21 PM 33.9656 -84.7553 88° East 268 308 6,000 -550 Descending Atlanta Center
Sat 09:31:21 PM 33.9658 -84.6675 90° East 268 308 5,400 -500 Descending Atlanta Center
Sat 09:32:21 PM 33.9683 -84.5822 88° East 256 295 5,000 -134 Descending Atlanta Center
Sat 09:34:20 PM 33.9667 -84.4167 91° East 241 277 5,000  Level Atlanta TRACON
Sat 09:35:26 PM 33.9667 -84.3333 90° East 239 275 5,000 -333 Level Atlanta TRACON
Sat 09:36:26 PM 33.9667 -84.2500 90° East 234 269 4,300 -600 Descending Atlanta TRACON
Sat 09:37:26 PM 33.9500 -84.1833 107° East 219 252 3,800 -500 Descending Atlanta TRACON

Login

Don't have an account? Register now (free) for customized features, flight alerts, and more!